createdAt,value
2022-07-26T00:02:04.542Z,22.65
2022-07-26T00:04:32.672Z,22.43
2022-07-26T00:07:00.512Z,22.41
2022-07-26T00:09:29.461Z,22.42
2022-07-26T00:11:57.118Z,22.34
2022-07-26T00:14:25.243Z,22.53
2022-07-26T00:16:53.081Z,22.78
2022-07-26T00:19:21.033Z,22.93
2022-07-26T00:22:08.939Z,22.76
2022-07-26T00:24:37.114Z,22.84
2022-07-26T00:27:04.965Z,22.72
2022-07-26T00:29:32.770Z,22.74
2022-07-26T00:32:00.387Z,22.57
2022-07-26T00:34:27.960Z,22.48
2022-07-26T00:36:56.063Z,22.13
2022-07-26T00:39:24.678Z,22.13
2022-07-26T00:41:52.260Z,21.93
2022-07-26T00:44:19.817Z,21.70
2022-07-26T00:46:47.633Z,21.83
2022-07-26T00:49:15.382Z,21.85
2022-07-26T00:51:45.668Z,22.12
2022-07-26T00:54:17.129Z,22.39
2022-07-26T00:56:44.764Z,22.28
2022-07-26T00:59:13.112Z,22.24
2022-07-26T01:01:40.840Z,21.98
2022-07-26T01:04:08.857Z,21.85
2022-07-26T01:06:38.496Z,21.71
2022-07-26T01:09:05.930Z,21.81
2022-07-26T01:11:34.355Z,21.99
2022-07-26T01:14:02.029Z,21.74
2022-07-26T01:16:29.854Z,21.45
2022-07-26T01:18:58.379Z,21.39
2022-07-26T01:21:33.324Z,21.47
2022-07-26T01:24:00.993Z,21.36
2022-07-26T01:26:28.639Z,21.44
2022-07-26T01:28:56.731Z,21.38
2022-07-26T01:31:24.493Z,21.39
2022-07-26T01:33:52.197Z,21.44
2022-07-26T01:36:19.992Z,21.64
2022-07-26T01:38:47.786Z,22.02
2022-07-26T01:41:15.328Z,21.75
2022-07-26T01:43:43.646Z,21.82
2022-07-26T01:46:11.372Z,21.70
2022-07-26T01:48:39.362Z,21.56
2022-07-26T01:51:07.080Z,21.45
2022-07-26T01:53:34.768Z,21.57
2022-07-26T01:56:02.246Z,21.88
2022-07-26T01:58:29.955Z,21.68
2022-07-26T02:00:57.457Z,21.45
2022-07-26T02:03:24.933Z,21.49
2022-07-26T02:05:52.307Z,21.30
2022-07-26T02:08:19.924Z,21.29
2022-07-26T02:11:03.639Z,21.46
2022-07-26T02:13:34.403Z,21.54
2022-07-26T02:16:04.137Z,21.40
2022-07-26T02:18:31.841Z,21.12
2022-07-26T02:21:01.537Z,20.99
2022-07-26T02:23:29.485Z,21.15
2022-07-26T02:25:57.206Z,21.13
2022-07-26T02:28:24.748Z,21.01
2022-07-26T02:30:52.414Z,20.93
2022-07-26T02:33:21.328Z,20.85
2022-07-26T02:35:48.979Z,21.15
2022-07-26T02:38:16.889Z,21.30
2022-07-26T02:40:44.651Z,21.30
2022-07-26T02:43:12.187Z,21.14
2022-07-26T02:45:39.851Z,21.06
2022-07-26T02:48:07.604Z,21.05
2022-07-26T02:50:35.569Z,21.08
2022-07-26T02:53:03.476Z,21.27
2022-07-26T02:55:31.322Z,20.91
2022-07-26T02:57:58.973Z,21.16
2022-07-26T03:00:27.075Z,21.19
2022-07-26T03:02:54.904Z,20.96
2022-07-26T03:05:22.679Z,21.08
2022-07-26T03:07:50.569Z,21.13
2022-07-26T03:10:18.220Z,21.15
2022-07-26T03:12:46.742Z,21.12
2022-07-26T03:15:14.684Z,21.16
2022-07-26T03:17:42.169Z,21.50
2022-07-26T03:20:10.505Z,21.36
2022-07-26T03:22:37.953Z,21.62
2022-07-26T03:25:05.752Z,21.48
2022-07-26T03:27:34.058Z,21.35
2022-07-26T03:30:01.605Z,21.24
2022-07-26T03:32:29.265Z,21.23
2022-07-26T03:34:56.626Z,21.00
2022-07-26T03:37:24.394Z,21.17
2022-07-26T03:39:51.816Z,21.16
2022-07-26T03:42:19.369Z,21.11
2022-07-26T03:44:46.787Z,21.32
2022-07-26T03:47:14.311Z,21.48
2022-07-26T03:49:41.744Z,21.52
2022-07-26T03:52:11.028Z,21.54
2022-07-26T03:54:38.592Z,21.54
2022-07-26T03:57:06.069Z,21.77
2022-07-26T03:59:33.630Z,21.89
2022-07-26T04:02:01.181Z,21.87
2022-07-26T04:04:28.848Z,21.70
2022-07-26T04:06:56.938Z,21.68
2022-07-26T10:33:01.935Z,27.15
2022-07-26T10:35:42.541Z,27.05
2022-07-26T10:38:12.212Z,26.58
2022-07-26T10:40:56.379Z,26.22
2022-07-26T10:43:41.560Z,25.32
2022-07-26T10:46:19.085Z,24.73
2022-07-26T10:49:00.368Z,24.40
2022-07-26T10:51:49.334Z,24.19
2022-07-26T10:54:18.169Z,24.00
2022-07-26T10:56:45.675Z,24.26
2022-07-26T10:59:54.410Z,24.84
2022-07-26T11:02:21.414Z,25.11
2022-07-26T11:05:01.159Z,25.68
2022-07-26T11:07:30.266Z,26.04
2022-07-26T11:10:01.671Z,26.07
2022-07-26T11:12:29.172Z,25.79
2022-07-26T11:14:56.786Z,25.59
2022-07-26T11:17:27.787Z,25.40
2022-07-26T11:19:56.193Z,25.23
2022-07-26T11:22:36.225Z,25.08
2022-07-26T11:25:05.218Z,25.01
2022-07-26T11:27:32.774Z,25.00
2022-07-26T11:30:05.573Z,24.99
2022-07-26T11:32:33.114Z,24.79
2022-07-26T11:35:02.332Z,24.78
2022-07-26T11:37:31.094Z,24.71
2022-07-26T11:39:58.773Z,24.79
2022-07-26T11:42:26.358Z,24.79
2022-07-26T11:44:54.220Z,24.75
2022-07-26T11:47:25.353Z,24.58
2022-07-26T11:52:43.212Z,24.66
2022-07-26T11:55:10.671Z,24.68
2022-07-26T11:57:38.669Z,24.68
2022-07-26T12:00:07.129Z,24.78
2022-07-26T12:02:34.925Z,24.78
2022-07-26T12:05:20.813Z,24.76
2022-07-26T12:07:55.159Z,24.80
2022-07-26T12:10:23.376Z,24.80
2022-07-26T12:13:13.773Z,24.71
2022-07-26T12:15:53.821Z,24.74
2022-07-26T12:18:30.201Z,24.81
2022-07-26T12:21:04.097Z,24.76
2022-07-26T12:23:48.530Z,24.90
2022-07-26T12:26:27.981Z,24.84
2022-07-26T12:28:56.929Z,24.86
2022-07-26T12:31:33.010Z,24.85
2022-07-26T12:34:00.980Z,24.76
2022-07-26T12:36:29.984Z,24.94
2022-07-26T12:38:59.588Z,24.97
2022-07-26T12:41:40.302Z,24.99
2022-07-26T12:44:12.234Z,24.98
2022-07-26T12:46:40.842Z,24.90
2022-07-26T12:49:10.970Z,24.78
2022-07-26T12:51:39.072Z,24.75
2022-07-26T12:54:06.746Z,24.65
2022-07-26T12:56:35.345Z,24.45
2022-07-26T12:59:02.958Z,23.97
2022-07-26T13:01:32.078Z,23.72
2022-07-26T13:04:00.129Z,23.70
2022-07-26T13:06:27.883Z,23.58
2022-07-26T13:08:56.685Z,23.35
2022-07-26T13:11:25.161Z,23.22
2022-07-26T13:13:52.721Z,23.49
2022-07-26T13:16:20.292Z,23.65
2022-07-26T13:18:49.116Z,23.59
2022-07-26T13:21:17.190Z,23.52
2022-07-26T13:23:44.758Z,23.31
2022-07-26T13:26:12.282Z,23.36
2022-07-26T13:28:40.784Z,23.41
2022-07-26T13:31:08.637Z,23.60
2022-07-26T13:33:39.491Z,23.49
2022-07-26T13:36:07.042Z,23.08
2022-07-26T13:41:02.530Z,22.61
2022-07-26T13:43:35.402Z,22.60
2022-07-26T13:46:04.005Z,22.40
2022-07-26T13:48:31.600Z,22.41
2022-07-26T13:50:59.247Z,22.02
2022-07-26T13:53:27.801Z,21.88
2022-07-26T13:55:55.268Z,22.15
2022-07-26T13:58:23.643Z,22.23
2022-07-26T14:00:51.193Z,22.52
2022-07-26T14:03:20.067Z,22.73
2022-07-26T14:05:47.550Z,23.09
2022-07-26T14:08:15.564Z,23.39
2022-07-26T14:10:46.552Z,23.25
2022-07-26T14:13:15.345Z,23.16
2022-07-26T14:15:42.726Z,23.32
2022-07-26T14:18:10.211Z,23.49
2022-07-26T14:20:39.505Z,23.33
2022-07-26T14:23:07.286Z,23.41
2022-07-26T14:25:35.267Z,23.64
2022-07-26T14:28:02.835Z,23.58
2022-07-26T14:30:30.408Z,23.69
2022-07-26T14:32:58.038Z,23.38
2022-07-26T14:35:29.409Z,23.49
2022-07-26T14:37:56.848Z,23.69
2022-07-26T14:40:24.699Z,23.88
2022-07-26T14:42:52.214Z,23.93
2022-07-26T14:45:19.810Z,23.98
2022-07-26T14:47:47.374Z,24.10
2022-07-26T14:50:15.424Z,24.14
2022-07-26T14:52:46.277Z,24.15
2022-07-26T14:55:15.394Z,24.10
2022-07-26T14:57:43.406Z,24.01
2022-07-26T15:00:14.720Z,23.89
2022-07-26T15:02:45.398Z,23.72
2022-07-26T15:05:15.408Z,23.74
2022-07-26T15:07:43.587Z,23.79
2022-07-26T15:10:13.628Z,23.89
2022-07-26T15:12:44.820Z,24.00
2022-07-26T15:15:12.511Z,23.97
2022-07-26T15:17:46.355Z,23.91
2022-07-26T15:20:24.313Z,23.91
2022-07-26T15:22:54.143Z,24.04
2022-07-26T15:25:24.128Z,23.98
2022-07-26T15:27:51.778Z,23.97
2022-07-26T15:30:22.255Z,24.03
2022-07-26T15:32:56.262Z,24.05
2022-07-26T15:35:23.701Z,24.20
2022-07-26T15:37:51.745Z,23.91
2022-07-26T15:40:20.968Z,24.06
2022-07-26T15:42:50.634Z,24.04
2022-07-26T15:45:18.593Z,24.00
2022-07-26T15:48:01.087Z,24.02
2022-07-26T15:50:35.114Z,23.98
2022-07-26T15:53:02.650Z,24.11
2022-07-26T15:55:30.364Z,24.14
2022-07-26T15:57:57.893Z,23.98
2022-07-26T16:00:25.469Z,24.04
2022-07-26T16:02:53.372Z,24.13
2022-07-26T16:05:23.173Z,24.16
2022-07-26T16:07:50.813Z,24.16
2022-07-26T16:10:18.313Z,24.00
2022-07-26T16:12:46.273Z,23.83
2022-07-26T16:15:19.424Z,23.88
2022-07-26T16:17:47.495Z,24.00
2022-07-26T16:20:16.487Z,23.96
2022-07-26T16:22:44.222Z,23.98
2022-07-26T16:25:16.143Z,23.94
2022-07-26T16:27:44.115Z,23.93
2022-07-26T16:30:13.175Z,24.01
2022-07-26T16:32:42.749Z,24.06
2022-07-26T16:35:10.885Z,24.08
2022-07-26T16:37:38.935Z,24.09
2022-07-26T16:40:07.656Z,24.06
2022-07-26T16:42:35.490Z,23.98
2022-07-26T16:45:03.124Z,24.02
2022-07-26T16:47:30.998Z,23.99
2022-07-26T16:49:58.631Z,24.01
2022-07-26T16:52:26.052Z,24.00
2022-07-26T16:54:53.782Z,23.99
2022-07-26T16:57:21.240Z,23.79
2022-07-26T16:59:48.769Z,23.73
2022-07-26T17:02:16.808Z,23.84
2022-07-26T17:04:44.529Z,23.75
2022-07-26T17:07:25.067Z,23.63
2022-07-26T17:09:53.115Z,23.62
2022-07-26T17:12:21.641Z,23.57
2022-07-26T17:14:50.232Z,23.60
2022-07-26T17:17:17.723Z,23.42
2022-07-26T17:19:45.639Z,23.50
2022-07-26T17:22:13.680Z,23.57
2022-07-26T17:24:41.301Z,23.41
2022-07-26T17:27:08.994Z,23.55
2022-07-26T17:29:36.732Z,23.41
2022-07-26T17:32:04.703Z,23.34
2022-07-26T17:34:33.629Z,23.33
2022-07-26T17:37:05.723Z,23.32
2022-07-26T17:39:51.784Z,23.25
2022-07-26T17:42:25.323Z,23.28
2022-07-26T17:44:52.936Z,23.44
2022-07-26T17:47:29.404Z,23.41
2022-07-26T17:50:34.126Z,23.24
2022-07-26T17:52:51.027Z,23.11
2022-07-26T17:55:19.838Z,23.20
2022-07-26T17:57:50.381Z,23.13
2022-07-26T18:00:20.546Z,23.18
2022-07-26T18:02:48.707Z,23.15
2022-07-26T18:05:16.880Z,23.08
2022-07-26T18:07:44.376Z,23.08
2022-07-26T18:10:14.576Z,23.14
2022-07-26T18:12:42.502Z,23.16
2022-07-26T18:15:10.834Z,23.20
2022-07-26T18:17:43.888Z,23.14
2022-07-26T18:20:12.307Z,23.09
2022-07-26T18:22:40.260Z,23.03
2022-07-26T18:25:08.236Z,23.04
2022-07-26T18:27:35.641Z,22.88
2022-07-26T18:30:05.016Z,22.75
2022-07-26T18:32:34.274Z,22.81
2022-07-26T18:35:01.775Z,22.67
2022-07-26T18:37:29.469Z,22.48
2022-07-26T18:39:58.036Z,22.44
2022-07-26T18:42:26.670Z,22.33
2022-07-26T18:44:54.378Z,22.26
2022-07-26T18:47:22.249Z,22.17
2022-07-26T18:49:50.121Z,22.10
2022-07-26T18:52:31.904Z,22.09
2022-07-26T18:55:07.305Z,22.27
2022-07-26T18:57:36.884Z,22.19
2022-07-26T19:00:06.993Z,22.07
2022-07-26T19:02:34.596Z,22.03
2022-07-26T19:05:02.377Z,21.98
2022-07-26T19:07:31.890Z,21.94
2022-07-26T19:10:00.297Z,21.98
2022-07-26T19:12:28.552Z,21.95
2022-07-26T19:14:56.137Z,22.06
2022-07-26T19:17:24.975Z,22.04
2022-07-26T19:19:53.085Z,21.94
2022-07-26T19:22:21.802Z,22.02
2022-07-26T19:24:49.221Z,22.08
2022-07-26T19:27:16.694Z,22.16
2022-07-26T19:29:44.949Z,22.13
2022-07-26T19:32:12.916Z,22.18
2022-07-26T19:34:40.688Z,22.17
2022-07-26T19:37:10.858Z,22.04
2022-07-26T19:39:40.005Z,21.89
2022-07-26T19:42:07.456Z,21.82
2022-07-26T19:44:36.277Z,21.78
2022-07-26T19:47:04.002Z,21.72
2022-07-26T19:49:32.202Z,21.68
2022-07-26T19:51:59.968Z,21.81
2022-07-26T19:54:28.423Z,21.91
2022-07-26T19:56:55.910Z,21.68
2022-07-26T19:59:24.412Z,21.60
2022-07-26T20:01:55.324Z,21.51
2022-07-26T20:04:25.833Z,21.39
2022-07-26T20:06:55.048Z,21.34
2022-07-26T20:09:22.547Z,21.34
2022-07-26T20:11:51.227Z,21.41
2022-07-26T20:14:19.921Z,21.37
2022-07-26T20:16:50.532Z,21.36
2022-07-26T20:19:23.515Z,21.30
2022-07-26T20:21:51.585Z,21.20
2022-07-26T20:24:19.180Z,21.23
2022-07-26T20:26:46.901Z,21.14
2022-07-26T20:29:14.896Z,21.12
2022-07-26T20:31:43.150Z,21.28
2022-07-26T20:34:10.613Z,21.19
2022-07-26T20:36:38.334Z,21.08
2022-07-26T20:39:06.056Z,21.33
2022-07-26T20:41:34.952Z,21.80
2022-07-26T20:44:02.477Z,21.95
2022-07-26T20:46:32.080Z,21.88
2022-07-26T20:49:00.044Z,21.80
2022-07-26T20:51:27.542Z,21.87
2022-07-26T20:53:54.936Z,22.11
2022-07-26T20:56:22.623Z,22.33
2022-07-26T20:58:50.389Z,22.59
2022-07-26T21:01:17.958Z,22.77
2022-07-26T21:03:47.483Z,22.58
2022-07-26T21:06:15.344Z,22.80
2022-07-26T21:08:44.360Z,22.66
2022-07-26T21:11:11.897Z,22.59
2022-07-26T21:13:53.090Z,22.33
2022-07-26T21:16:21.218Z,22.41
2022-07-26T21:18:53.031Z,22.38
2022-07-26T21:21:22.525Z,22.64
2022-07-26T21:23:50.163Z,22.61
2022-07-26T21:26:17.576Z,22.15
2022-07-26T21:28:45.237Z,22.15
2022-07-26T21:31:12.808Z,22.07
2022-07-26T21:33:40.310Z,22.38
2022-07-26T21:36:08.039Z,22.19
2022-07-26T21:38:35.545Z,22.36
2022-07-26T21:41:03.034Z,22.57
2022-07-26T21:43:30.581Z,22.44
2022-07-26T21:45:58.128Z,22.57
2022-07-26T21:48:26.993Z,22.46
2022-07-26T21:50:54.561Z,22.49
2022-07-26T21:53:22.021Z,22.25
2022-07-26T21:55:49.760Z,21.94
2022-07-26T21:58:17.282Z,21.86
2022-07-26T22:00:44.976Z,22.14
2022-07-26T22:03:13.640Z,22.01
2022-07-26T22:05:44.129Z,22.15
2022-07-26T22:08:13.856Z,22.17
2022-07-26T22:10:44.926Z,22.09
2022-07-26T22:13:14.216Z,21.87
2022-07-26T22:15:42.974Z,21.65
2022-07-26T22:18:10.827Z,21.69
2022-07-26T22:20:39.493Z,21.45
2022-07-26T22:23:09.463Z,21.67
2022-07-26T22:25:38.300Z,21.60
2022-07-26T22:28:08.500Z,21.48
2022-07-26T22:30:36.522Z,21.50
2022-07-26T22:33:07.955Z,21.68
2022-07-26T22:35:36.458Z,21.68
2022-07-26T22:38:11.048Z,21.41
2022-07-26T22:40:41.264Z,21.30
2022-07-26T22:43:09.614Z,21.31
2022-07-26T22:45:37.943Z,21.36
2022-07-26T22:48:05.979Z,21.19
2022-07-26T22:50:34.056Z,20.97
2022-07-26T22:53:02.005Z,21.09
2022-07-26T22:55:30.253Z,21.00
2022-07-26T22:57:58.048Z,20.98
2022-07-26T23:00:25.826Z,21.10
2022-07-26T23:02:53.298Z,21.03
2022-07-26T23:05:20.782Z,21.01
2022-07-26T23:07:49.110Z,20.98
2022-07-26T23:10:17.863Z,20.97
2022-07-26T23:12:58.079Z,20.79
2022-07-26T23:15:29.118Z,20.82
2022-07-26T23:17:57.128Z,20.98
2022-07-26T23:20:25.309Z,21.40
2022-07-26T23:22:52.905Z,21.14
2022-07-26T23:25:22.118Z,21.06
2022-07-26T23:27:49.577Z,20.98
2022-07-26T23:30:17.067Z,20.95
2022-07-26T23:32:44.475Z,21.02
2022-07-26T23:35:13.022Z,20.87
2022-07-26T23:37:40.693Z,20.71
2022-07-26T23:40:09.014Z,20.80
2022-07-26T23:42:39.639Z,20.84
2022-07-26T23:45:08.367Z,21.19
2022-07-26T23:47:35.870Z,21.42
2022-07-26T23:50:03.693Z,21.38
2022-07-26T23:52:31.622Z,21.48
2022-07-26T23:54:59.017Z,21.34
2022-07-26T23:57:26.663Z,21.03
2022-07-26T23:59:54.342Z,20.93
